createdAt,value
2018-03-24T00:00:34.619Z,95926.25
2018-03-24T00:03:02.441Z,95925.28
2018-03-24T00:05:29.967Z,95914.24
2018-03-24T00:07:57.596Z,95918.52
2018-03-24T00:10:25.138Z,95911.31
2018-03-24T00:12:52.653Z,95912.09
2018-03-24T00:15:20.401Z,95909.51
2018-03-24T00:17:47.913Z,95910.12
2018-03-24T00:20:15.449Z,95903.64
2018-03-24T00:22:42.989Z,95906.40
2018-03-24T00:25:10.522Z,95904.01
2018-03-24T00:27:38.094Z,95898.09
2018-03-24T00:30:05.628Z,95899.92
2018-03-24T00:32:33.136Z,95891.61
2018-03-24T00:35:00.673Z,95894.63
2018-03-24T00:37:28.185Z,95897.09
2018-03-24T00:39:55.901Z,95893.60
2018-03-24T00:42:23.409Z,95890.52
2018-03-24T00:44:50.921Z,95888.02
2018-03-24T00:47:18.526Z,95891.17
2018-03-24T00:49:46.046Z,95885.73
2018-03-24T00:52:13.590Z,95878.20
2018-03-24T00:54:41.127Z,95876.17
2018-03-24T00:57:08.661Z,95880.16
2018-03-24T00:59:36.205Z,95878.66
2018-03-24T01:02:03.742Z,95874.97
2018-03-24T01:04:31.698Z,95870.59
2018-03-24T01:06:59.209Z,95874.01
2018-03-24T01:09:26.721Z,95868.34
2018-03-24T01:11:54.270Z,95860.98
2018-03-24T01:14:21.801Z,95861.70
2018-03-24T01:16:49.367Z,95859.23
2018-03-24T01:19:16.881Z,95858.20
2018-03-24T01:21:44.398Z,95857.86
2018-03-24T01:24:11.929Z,95859.02
2018-03-24T01:26:39.452Z,95861.51
2018-03-24T01:29:07.300Z,95857.55
2018-03-24T01:31:34.814Z,95854.52
2018-03-24T01:34:02.334Z,95853.42
2018-03-24T01:36:29.883Z,95850.16
2018-03-24T01:38:57.862Z,95844.84
2018-03-24T01:41:25.601Z,95840.01
2018-03-24T01:43:53.131Z,95835.08
2018-03-24T01:46:20.654Z,95836.17
2018-03-24T01:48:48.194Z,95836.42
2018-03-24T01:51:15.725Z,95834.78
2018-03-24T01:53:53.100Z,95833.48
2018-03-24T01:56:21.632Z,95834.03
2018-03-24T01:58:49.156Z,95823.66
2018-03-24T02:01:16.714Z,95825.38
2018-03-24T02:03:44.230Z,95824.74
2018-03-24T02:06:11.792Z,95821.48
2018-03-24T02:08:39.313Z,95820.95
2018-03-24T02:11:06.835Z,95817.19
2018-03-24T02:13:34.374Z,95808.07
2018-03-24T02:16:01.891Z,95806.70
2018-03-24T02:18:29.640Z,95809.03
2018-03-24T02:20:57.549Z,95799.36
2018-03-24T02:23:25.060Z,95799.88
2018-03-24T02:25:52.611Z,95794.89
2018-03-24T02:28:20.131Z,95793.02
2018-03-24T02:30:47.850Z,95792.59
2018-03-24T02:33:15.367Z,95780.05
2018-03-24T02:35:42.890Z,95784.34
2018-03-24T02:38:10.430Z,95781.00
2018-03-24T02:40:37.972Z,95776.14
2018-03-24T02:43:05.528Z,95774.88
2018-03-24T02:45:33.058Z,95774.48
2018-03-24T02:48:00.573Z,95772.63
2018-03-24T02:50:28.123Z,95778.32
2018-03-24T02:52:56.621Z,95777.69
2018-03-24T02:55:24.569Z,95771.97
2018-03-24T02:57:52.091Z,95774.69
2018-03-24T03:00:19.606Z,95772.42
2018-03-24T03:02:47.150Z,95767.31
2018-03-24T03:05:14.669Z,95765.33
2018-03-24T03:07:42.470Z,95767.58
2018-03-24T03:10:09.986Z,95767.17
2018-03-24T03:12:37.506Z,95764.79
2018-03-24T03:15:05.051Z,95756.23
2018-03-24T03:17:33.545Z,95758.02
2018-03-24T03:20:01.097Z,95751.12
2018-03-24T03:22:28.611Z,95755.17
2018-03-24T03:24:56.129Z,95754.34
2018-03-24T03:27:23.717Z,95759.27
2018-03-24T03:29:51.229Z,95752.92
2018-03-24T03:32:19.090Z,95752.11
2018-03-24T03:34:46.608Z,95753.97
2018-03-24T03:37:14.133Z,95750.83
2018-03-24T03:39:41.742Z,95746.13
2018-03-24T03:42:09.235Z,95742.95
2018-03-24T03:44:36.773Z,95745.58
2018-03-24T03:47:04.290Z,95749.52
2018-03-24T03:49:31.801Z,95742.88
2018-03-24T03:51:59.375Z,95745.41
2018-03-24T03:54:26.889Z,95744.13
2018-03-24T03:56:54.455Z,95747.06
2018-03-24T03:59:21.969Z,95741.55
2018-03-24T04:01:49.917Z,95732.75
2018-03-24T04:04:17.508Z,95728.03
2018-03-24T04:06:44.999Z,95733.37
2018-03-24T04:09:12.674Z,95734.53
2018-03-24T04:11:40.669Z,95730.24
2018-03-24T04:14:08.201Z,95730.58
2018-03-24T04:16:35.742Z,95725.55
2018-03-24T04:19:03.267Z,95728.34
2018-03-24T04:21:30.993Z,95720.89
2018-03-24T04:23:58.518Z,95720.67
2018-03-24T04:26:26.051Z,95720.34
2018-03-24T04:28:53.614Z,95722.84
2018-03-24T04:31:21.151Z,95721.56
2018-03-24T04:33:48.895Z,95727.66
2018-03-24T04:36:16.418Z,95722.19
2018-03-24T04:38:43.933Z,95724.22
2018-03-24T04:41:11.481Z,95725.98
2018-03-24T04:43:39.000Z,95723.27
2018-03-24T04:46:06.678Z,95719.55
2018-03-24T04:48:35.104Z,95723.45
2018-03-24T04:51:03.562Z,95722.46
2018-03-24T04:53:31.121Z,95721.51
2018-03-24T04:55:58.633Z,95724.20
2018-03-24T04:58:26.183Z,95716.35
2018-03-24T05:00:53.702Z,95722.34
2018-03-24T05:03:21.213Z,95716.41
2018-03-24T05:05:48.776Z,95715.13
2018-03-24T05:08:16.594Z,95715.70
2018-03-24T05:10:44.713Z,95716.00
2018-03-24T05:13:12.241Z,95715.25
2018-03-24T05:15:39.763Z,95717.04
2018-03-24T05:18:07.311Z,95717.06
2018-03-24T05:20:35.816Z,95717.78
2018-03-24T05:23:03.546Z,95713.39
2018-03-24T05:25:31.053Z,95720.13
2018-03-24T05:27:58.738Z,95714.88
2018-03-24T05:30:26.272Z,95718.80
2018-03-24T05:32:53.795Z,95717.09
2018-03-24T05:35:21.357Z,95720.30
2018-03-24T05:37:48.868Z,95721.66
2018-03-24T05:40:16.422Z,95719.75
2018-03-24T05:42:43.970Z,95719.66
2018-03-24T05:45:11.486Z,95724.66
2018-03-24T05:47:39.133Z,95725.84
2018-03-24T05:50:06.653Z,95724.83
2018-03-24T05:52:34.183Z,95724.66
2018-03-24T05:55:01.722Z,95731.72
2018-03-24T05:57:30.246Z,95735.28
2018-03-24T05:59:57.798Z,95732.05
2018-03-24T06:02:25.314Z,95733.45
2018-03-24T06:04:52.837Z,95735.80
2018-03-24T06:07:20.375Z,95733.45
2018-03-24T06:09:47.895Z,95741.52
2018-03-24T06:12:15.654Z,95742.95
2018-03-24T06:14:43.169Z,95742.05
2018-03-24T06:17:11.212Z,95736.64
2018-03-24T06:19:38.761Z,95735.75
2018-03-24T06:22:07.251Z,95737.95
2018-03-24T06:24:34.997Z,95742.78
2018-03-24T06:27:03.496Z,95735.74
2018-03-24T06:29:31.915Z,95737.62
2018-03-24T06:32:02.812Z,95739.87
2018-03-24T06:34:30.331Z,95738.27
2018-03-24T06:37:03.849Z,95738.70
2018-03-24T06:39:31.376Z,95742.55
2018-03-24T06:41:58.898Z,95741.62
2018-03-24T06:44:26.457Z,95743.86
2018-03-24T06:46:54.018Z,95743.86
2018-03-24T06:49:21.768Z,95741.89
2018-03-24T06:51:49.741Z,95745.97
2018-03-24T06:54:17.603Z,95741.19
2018-03-24T06:56:45.194Z,95748.23
2018-03-24T06:59:12.709Z,95752.06
2018-03-24T07:01:40.466Z,95740.47
2018-03-24T07:04:07.988Z,95748.95
2018-03-24T07:06:36.936Z,95749.72
2018-03-24T07:09:05.437Z,95757.43
2018-03-24T07:11:32.958Z,95756.86
2018-03-24T07:14:00.844Z,95753.91
2018-03-24T07:16:28.365Z,95750.55
2018-03-24T07:18:55.874Z,95748.55
2018-03-24T07:21:23.409Z,95747.45
2018-03-24T07:23:51.489Z,95751.39
2018-03-24T07:26:19.361Z,95749.36
2018-03-24T07:28:46.916Z,95752.27
2018-03-24T07:31:14.576Z,95757.53
2018-03-24T07:33:42.117Z,95751.69
2018-03-24T07:36:11.054Z,95754.56
2018-03-24T07:38:39.143Z,95759.72
2018-03-24T07:41:06.629Z,95754.89
2018-03-24T07:43:34.391Z,95760.54
2018-03-24T07:46:02.258Z,95757.69
2018-03-24T07:48:30.070Z,95753.64
2018-03-24T07:50:58.294Z,95756.09
2018-03-24T07:53:26.198Z,95757.20
2018-03-24T07:55:53.958Z,95759.70
2018-03-24T07:58:22.302Z,95761.41
2018-03-24T08:00:49.994Z,95754.70
2018-03-24T08:03:17.745Z,95759.92
2018-03-24T08:05:45.632Z,95758.15
2018-03-24T08:08:13.507Z,95757.97
2018-03-24T08:10:41.365Z,95757.97
2018-03-24T08:13:08.934Z,95760.30
2018-03-24T08:15:36.773Z,95761.17
2018-03-24T08:18:04.290Z,95761.14
2018-03-24T08:20:31.825Z,95769.46
2018-03-24T08:22:59.506Z,95769.60
2018-03-24T08:25:27.116Z,95769.59
2018-03-24T08:27:54.881Z,95775.10
2018-03-24T08:30:22.786Z,95778.34
2018-03-24T08:32:50.523Z,95774.02
2018-03-24T08:35:18.388Z,95769.33
2018-03-24T08:37:45.953Z,95771.64
2018-03-24T08:40:14.020Z,95773.27
2018-03-24T08:42:41.754Z,95778.78
2018-03-24T08:45:09.356Z,95780.76
2018-03-24T08:47:37.581Z,95777.36
2018-03-24T08:50:05.242Z,95785.80
2018-03-24T08:52:33.019Z,95783.94
2018-03-24T08:55:00.710Z,95776.59
2018-03-24T08:57:29.253Z,95778.67
2018-03-24T08:59:57.034Z,95777.08
2018-03-24T09:02:24.561Z,95781.81
2018-03-24T09:04:52.249Z,95777.42
2018-03-24T09:07:19.786Z,95778.83
2018-03-24T09:09:47.599Z,95769.55
2018-03-24T09:12:15.687Z,95775.18
2018-03-24T09:14:43.639Z,95767.35
2018-03-24T09:17:11.411Z,95773.11
2018-03-24T09:19:39.560Z,95774.09
2018-03-24T09:22:07.347Z,95772.02
2018-03-24T09:24:34.978Z,95766.17
2018-03-24T09:27:02.837Z,95765.00
2018-03-24T09:29:31.002Z,95767.83
2018-03-24T09:31:58.696Z,95772.20
2018-03-24T09:34:26.923Z,95775.75
2018-03-24T09:36:54.805Z,95770.66
2018-03-24T09:39:22.460Z,95774.69
2018-03-24T09:41:50.639Z,95774.88
2018-03-24T09:44:18.548Z,95769.91
2018-03-24T09:46:48.157Z,95789.45
2018-03-24T09:49:16.091Z,95783.50
2018-03-24T09:51:43.957Z,95783.14
2018-03-24T09:54:11.859Z,95782.83
2018-03-24T09:56:40.093Z,95785.37
2018-03-24T09:59:08.000Z,95789.84
2018-03-24T10:01:35.866Z,95784.22
2018-03-24T10:04:03.634Z,95787.83
2018-03-24T10:06:31.935Z,95786.34
2018-03-24T10:08:59.773Z,95783.20
2018-03-24T10:11:27.538Z,95776.45
2018-03-24T10:13:55.362Z,95791.75
2018-03-24T10:16:23.162Z,95784.44
2018-03-24T10:18:51.137Z,95789.27
2018-03-24T10:24:29.366Z,95783.81
2018-03-24T10:26:58.060Z,95781.09
2018-03-24T10:29:27.046Z,95787.36
2018-03-24T10:31:55.218Z,95783.64
2018-03-24T10:34:23.086Z,95786.76
2018-03-24T10:36:51.064Z,95783.82
2018-03-24T10:39:19.536Z,95777.59
2018-03-24T10:41:47.268Z,95790.54
2018-03-24T10:44:14.866Z,95788.38
2018-03-24T10:46:42.518Z,95790.43
2018-03-24T10:49:10.794Z,95798.25
2018-03-24T10:51:38.663Z,95797.23
2018-03-24T10:54:06.506Z,95786.42
2018-03-24T10:56:34.162Z,95781.53
2018-03-24T10:59:01.690Z,95783.77
2018-03-24T11:01:29.616Z,95783.72
2018-03-24T11:03:57.278Z,95783.46
2018-03-24T11:06:25.022Z,95792.96
2018-03-24T11:08:52.893Z,95789.45
2018-03-24T11:11:20.465Z,95786.23
2018-03-24T11:13:48.249Z,95786.55
2018-03-24T11:16:15.941Z,95782.89
2018-03-24T11:18:43.760Z,95789.00
2018-03-24T11:21:11.395Z,95793.00
2018-03-24T11:23:38.953Z,95791.47
2018-03-24T11:26:06.848Z,95786.47
2018-03-24T11:28:34.612Z,95786.58
2018-03-24T11:31:02.478Z,95788.50
2018-03-24T11:33:30.447Z,95788.91
2018-03-24T11:35:58.373Z,95781.03
2018-03-24T11:38:26.384Z,95774.60
2018-03-24T11:40:54.133Z,95777.94
2018-03-24T11:43:22.016Z,95774.07
2018-03-24T11:45:49.885Z,95765.11
2018-03-24T11:48:17.741Z,95771.22
2018-03-24T11:50:45.711Z,95772.88
2018-03-24T11:53:13.476Z,95770.48
2018-03-24T11:55:41.130Z,95769.61
2018-03-24T11:58:08.805Z,95773.74
2018-03-24T12:00:36.677Z,95769.63
2018-03-24T12:03:05.217Z,95770.63
2018-03-24T12:05:33.224Z,95770.67
2018-03-24T12:08:00.787Z,95763.36
2018-03-24T12:10:28.445Z,95765.73
2018-03-24T12:12:56.082Z,95761.98
2018-03-24T12:15:24.079Z,95755.20
2018-03-24T12:17:51.950Z,95764.33
2018-03-24T12:20:20.163Z,95757.92
2018-03-24T12:22:47.964Z,95762.39
2018-03-24T12:25:15.856Z,95762.48
2018-03-24T12:27:43.615Z,95761.44
2018-03-24T12:30:11.380Z,95769.09
2018-03-24T12:32:39.243Z,95770.98
2018-03-24T12:35:06.903Z,95766.75
2018-03-24T12:37:34.566Z,95755.14
2018-03-24T12:40:02.639Z,95756.37
2018-03-24T12:42:30.217Z,95756.77
2018-03-24T12:44:57.744Z,95751.80
2018-03-24T12:47:25.351Z,95755.55
2018-03-24T12:49:53.083Z,95752.46
2018-03-24T12:52:20.802Z,95750.84
2018-03-24T12:54:48.685Z,95751.50
2018-03-24T12:57:16.575Z,95757.66
2018-03-24T12:59:44.432Z,95753.55
2018-03-24T13:02:12.097Z,95754.48
2018-03-24T13:04:40.381Z,95755.45
2018-03-24T13:07:08.465Z,95756.39
2018-03-24T13:09:36.216Z,95756.91
2018-03-24T13:12:04.289Z,95749.29
2018-03-24T13:14:32.154Z,95754.78
2018-03-24T13:17:00.327Z,95752.38
2018-03-24T13:19:28.184Z,95750.58
2018-03-24T13:21:55.977Z,95752.81
2018-03-24T13:24:23.770Z,95747.87
2018-03-24T13:26:51.348Z,95748.82
2018-03-24T13:29:19.149Z,95755.44
2018-03-24T13:31:47.015Z,95755.44
2018-03-24T13:34:14.881Z,95764.80
2018-03-24T13:36:42.748Z,95760.20
2018-03-24T13:39:11.202Z,95759.34
2018-03-24T13:41:39.368Z,95759.47
2018-03-24T13:44:07.063Z,95753.99
2018-03-24T13:46:34.904Z,95757.72
2018-03-24T13:49:03.310Z,95748.84
2018-03-24T13:51:31.175Z,95752.79
2018-03-24T13:53:58.940Z,95753.39
2018-03-24T13:56:26.611Z,95751.95
2018-03-24T13:58:54.319Z,95749.99
2018-03-24T14:01:21.871Z,95751.48
2018-03-24T14:03:50.255Z,95755.25
2018-03-24T14:06:18.251Z,95748.27
2018-03-24T14:08:45.987Z,95746.20
2018-03-24T14:11:13.796Z,95745.47
2018-03-24T14:13:41.667Z,95746.69
2018-03-24T14:16:09.538Z,95748.22
2018-03-24T14:18:37.497Z,95752.17
2018-03-24T14:21:05.267Z,95757.25
2018-03-24T14:23:32.888Z,95761.02
2018-03-24T14:26:00.759Z,95752.44
2018-03-24T14:28:28.972Z,95753.16
2018-03-24T14:30:56.668Z,95755.67
2018-03-24T14:33:25.489Z,95749.22
2018-03-24T14:35:53.173Z,95748.84
2018-03-24T14:38:21.049Z,95755.82
2018-03-24T14:40:48.840Z,95750.39
2018-03-24T14:43:16.781Z,95751.08
2018-03-24T14:45:44.647Z,95744.56
2018-03-24T14:48:12.544Z,95752.62
2018-03-24T14:50:40.396Z,95752.99
2018-03-24T14:53:07.987Z,95745.36
2018-03-24T14:55:36.216Z,95746.31
2018-03-24T14:58:03.972Z,95746.61
2018-03-24T15:00:31.642Z,95743.81
2018-03-24T15:02:59.304Z,95747.41
2018-03-24T15:05:27.086Z,95744.47
2018-03-24T15:07:55.447Z,95755.48
2018-03-24T15:10:23.202Z,95746.91
2018-03-24T15:12:50.864Z,95750.00
2018-03-24T15:15:18.637Z,95754.06
2018-03-24T15:17:46.708Z,95751.33
2018-03-24T15:20:14.819Z,95756.85
2018-03-24T15:22:42.453Z,95756.06
2018-03-24T15:25:10.193Z,95746.26
2018-03-24T15:27:38.020Z,95746.48
2018-03-24T15:30:17.440Z,95746.63
2018-03-24T15:32:52.006Z,95742.05
2018-03-24T15:35:31.718Z,95745.01
2018-03-24T15:37:59.489Z,95748.66
2018-03-24T15:40:27.169Z,95747.83
2018-03-24T15:42:54.747Z,95749.99
2018-03-24T15:45:22.409Z,95745.82
2018-03-24T15:47:50.292Z,95748.15
2018-03-24T15:50:17.828Z,95755.30
2018-03-24T15:52:45.409Z,95755.99
2018-03-24T15:55:13.006Z,95748.50
2018-03-24T15:57:40.628Z,95752.55
2018-03-24T16:00:08.495Z,95760.14
2018-03-24T16:02:36.260Z,95754.95
2018-03-24T16:05:04.030Z,95752.45
2018-03-24T16:07:31.789Z,95751.33
2018-03-24T16:09:59.654Z,95757.81
2018-03-24T16:12:27.418Z,95758.84
2018-03-24T16:14:55.184Z,95757.73
2018-03-24T16:17:22.951Z,95762.05
2018-03-24T16:19:51.017Z,95759.33
2018-03-24T16:22:18.589Z,95771.47
2018-03-24T16:24:46.325Z,95757.59
2018-03-24T16:27:14.005Z,95762.66
2018-03-24T16:29:41.769Z,95767.67
2018-03-24T16:32:09.637Z,95773.89
2018-03-24T16:34:37.501Z,95781.27
2018-03-24T16:37:05.449Z,95779.35
2018-03-24T16:39:33.057Z,95779.37
2018-03-24T16:42:00.682Z,95786.48
2018-03-24T16:44:28.660Z,95781.94
2018-03-24T16:46:56.290Z,95787.05
2018-03-24T16:49:24.169Z,95782.34
2018-03-24T16:51:51.791Z,95789.65
2018-03-24T16:54:19.502Z,95791.24
2018-03-24T16:56:47.723Z,95786.66
2018-03-24T16:59:15.757Z,95788.17
2018-03-24T17:01:43.727Z,95789.69
2018-03-24T17:04:11.881Z,95786.45
2018-03-24T17:06:39.975Z,95787.19
2018-03-24T17:09:07.764Z,95789.42
2018-03-24T17:11:35.618Z,95793.28
2018-03-24T17:14:03.469Z,95796.99
2018-03-24T17:16:31.439Z,95799.73
2018-03-24T17:18:59.483Z,95794.65
2018-03-24T17:21:27.649Z,95799.67
2018-03-24T17:23:55.548Z,95813.65
2018-03-24T17:26:23.156Z,95804.91
2018-03-24T17:28:51.239Z,95810.92
2018-03-24T17:31:19.045Z,95805.20
2018-03-24T17:33:47.731Z,95815.38
2018-03-24T17:36:16.089Z,95815.46
2018-03-24T17:38:43.647Z,95812.36
2018-03-24T17:41:11.321Z,95820.39
2018-03-24T17:43:39.300Z,95819.91
2018-03-24T17:46:06.896Z,95821.34
2018-03-24T17:48:34.445Z,95820.70
2018-03-24T17:51:02.011Z,95823.42
2018-03-24T17:53:29.639Z,95821.48
2018-03-24T17:55:57.249Z,95822.12
2018-03-24T17:58:25.065Z,95827.11
2018-03-24T18:00:52.607Z,95828.02
2018-03-24T18:03:20.175Z,95832.70
2018-03-24T18:05:47.844Z,95825.95
2018-03-24T18:08:15.609Z,95832.84
2018-03-24T18:10:43.373Z,95836.80
2018-03-24T18:13:11.217Z,95843.45
2018-03-24T18:15:38.901Z,95851.28
2018-03-24T18:18:06.678Z,95852.88
2018-03-24T18:20:34.658Z,95857.84
2018-03-24T18:23:02.707Z,95853.33
2018-03-24T18:25:30.778Z,95867.43
2018-03-24T18:27:58.644Z,95867.26
2018-03-24T18:30:26.514Z,95872.89
2018-03-24T18:32:54.377Z,95868.97
2018-03-24T18:35:22.141Z,95876.70
2018-03-24T18:37:49.927Z,95879.84
2018-03-24T18:40:17.879Z,95883.38
2018-03-24T18:42:45.946Z,95882.61
2018-03-24T18:45:13.812Z,95885.43
2018-03-24T18:47:42.105Z,95879.77
2018-03-24T18:50:10.032Z,95890.45
2018-03-24T18:52:37.925Z,95887.32
2018-03-24T18:55:05.997Z,95895.91
2018-03-24T18:57:33.763Z,95900.36
2018-03-24T19:00:01.441Z,95904.41
2018-03-24T19:02:29.493Z,95901.91
2018-03-24T19:04:57.769Z,95905.95
2018-03-24T19:07:25.841Z,95912.32
2018-03-24T19:09:53.536Z,95911.66
2018-03-24T19:12:21.550Z,95907.16
2018-03-24T19:14:49.659Z,95908.80
2018-03-24T19:17:18.440Z,95904.85
2018-03-24T19:19:46.634Z,95913.31
2018-03-24T19:22:14.473Z,95913.31
2018-03-24T19:24:42.314Z,95913.65
2018-03-24T19:27:10.917Z,95919.81
2018-03-24T19:29:38.585Z,95918.35
2018-03-24T19:32:06.553Z,95926.92
2018-03-24T19:34:34.425Z,95923.05
2018-03-24T19:37:02.287Z,95930.03
2018-03-24T19:39:30.894Z,95930.65
2018-03-24T19:41:58.869Z,95930.38
2018-03-24T19:44:27.144Z,95939.73
2018-03-24T19:46:54.974Z,95934.40
2018-03-24T19:49:22.985Z,95938.59
2018-03-24T19:51:51.533Z,95936.80
2018-03-24T19:54:19.488Z,95936.24
2018-03-24T19:56:50.406Z,95928.26
2018-03-24T19:59:18.512Z,95930.70
2018-03-24T20:01:46.473Z,95930.52
2018-03-24T20:04:14.802Z,95931.48
2018-03-24T20:06:42.578Z,95930.59
2018-03-24T20:09:10.592Z,95930.98
2018-03-24T20:11:38.663Z,95939.88
2018-03-24T20:14:07.458Z,95933.78
2018-03-24T20:16:35.522Z,95939.55
2018-03-24T20:19:03.714Z,95937.69
2018-03-24T20:21:32.077Z,95939.57
2018-03-24T20:23:59.960Z,95939.12
2018-03-24T20:26:28.024Z,95948.92
2018-03-24T20:31:29.933Z,95947.23
2018-03-24T20:33:58.064Z,95947.36
2018-03-24T20:36:25.932Z,95945.83
2018-03-24T20:38:53.794Z,95946.52
2018-03-24T20:41:21.806Z,95940.17
2018-03-24T20:43:50.501Z,95945.64
2018-03-24T20:46:18.516Z,95939.23
2018-03-24T20:48:46.285Z,95948.67
2018-03-24T20:51:14.256Z,95950.92
2018-03-24T20:53:42.443Z,95947.35
2018-03-24T20:56:10.381Z,95956.55
2018-03-24T20:58:38.658Z,95957.04
2018-03-24T21:01:06.542Z,95959.86
2018-03-24T21:03:35.125Z,95963.13
2018-03-24T21:06:03.401Z,95965.39
2018-03-24T21:08:31.456Z,95963.00
2018-03-24T21:11:01.081Z,95966.66
2018-03-24T21:13:29.362Z,95971.48
2018-03-24T21:15:57.329Z,95970.96
2018-03-24T21:18:25.536Z,95977.73
2018-03-24T21:20:53.423Z,95972.02
2018-03-24T21:23:21.437Z,95968.40
2018-03-24T21:25:49.512Z,95968.47
2018-03-24T21:28:17.352Z,95980.36
2018-03-24T21:30:45.240Z,95974.71
2018-03-24T21:33:13.312Z,95980.23
2018-03-24T21:35:41.178Z,95978.61
2018-03-24T21:38:09.044Z,95982.53
2018-03-24T21:40:36.912Z,95974.45
2018-03-24T21:43:05.700Z,95972.83
2018-03-24T21:45:34.283Z,95977.55
2018-03-24T21:48:02.239Z,95978.22
2018-03-24T21:50:30.426Z,95976.22
2018-03-24T21:52:59.623Z,95981.67
2018-03-24T21:55:27.496Z,95986.01
2018-03-24T21:57:55.356Z,95984.42
2018-03-24T22:00:23.590Z,95976.85
2018-03-24T22:02:51.725Z,95972.41
2018-03-24T22:05:19.572Z,95975.91
2018-03-24T22:07:47.316Z,95972.09
2018-03-24T22:10:15.097Z,95978.66
2018-03-24T22:12:43.580Z,95976.43
2018-03-24T22:15:11.801Z,95978.98
2018-03-24T22:17:39.722Z,95971.41
2018-03-24T22:20:07.486Z,95975.56
2018-03-24T22:22:35.268Z,95975.30
2018-03-24T22:25:03.433Z,95972.41
2018-03-24T22:27:31.188Z,95975.84
2018-03-24T22:29:58.986Z,95975.36
2018-03-24T22:32:27.025Z,95979.86
2018-03-24T22:34:54.691Z,95967.13
2018-03-24T22:37:23.066Z,95964.88
2018-03-24T22:39:50.774Z,95963.98
2018-03-24T22:42:18.493Z,95959.33
2018-03-24T22:44:46.160Z,95967.61
2018-03-24T22:47:14.230Z,95962.90
2018-03-24T22:49:42.230Z,95961.41
2018-03-24T22:52:10.117Z,95962.20
2018-03-24T22:54:38.027Z,95962.77
2018-03-24T22:57:05.895Z,95967.94
2018-03-24T22:59:34.246Z,95970.61
2018-03-24T23:02:01.948Z,95968.84
2018-03-24T23:04:29.820Z,95973.36
2018-03-24T23:06:57.565Z,95970.89
2018-03-24T23:09:25.309Z,95976.89
2018-03-24T23:11:52.938Z,95984.34
2018-03-24T23:14:20.755Z,95969.98
2018-03-24T23:16:48.327Z,95971.38
2018-03-24T23:19:16.054Z,95971.42
2018-03-24T23:21:43.617Z,95969.39
2018-03-24T23:24:11.246Z,95973.58
2018-03-24T23:26:38.935Z,95970.86
2018-03-24T23:29:06.445Z,95971.08
2018-03-24T23:31:33.978Z,95974.95
2018-03-24T23:34:01.517Z,95977.61
2018-03-24T23:36:29.037Z,95981.64
2018-03-24T23:38:56.654Z,95974.66
2018-03-24T23:41:24.200Z,95977.61
2018-03-24T23:43:52.189Z,95976.59
2018-03-24T23:46:19.730Z,95976.25
2018-03-24T23:48:47.263Z,95976.37
2018-03-24T23:51:15.154Z,95979.77
2018-03-24T23:53:42.680Z,95982.59
2018-03-24T23:56:10.203Z,95985.83
2018-03-24T23:58:38.665Z,95982.13
